Kezdőlap
METAR-TAF:

METAR-TAF

Repülőterek :

Newquay Cornwall, Anglia

földrajzi szélesség: 50-26N, földrajzi hosszúság: 005-00W, magasság: 119 m

Jelenlegi meteorológiai megfigyelések

A jelentés 8 órával és 40 perccel ezelõtt készült, 20:50 UTC
Északnyugati szél 7 kt
Hőmérséklet 11°C
Páratartalom 87%
Légköri nyomás 1019 hPa
Látótávolság 10 km, vagy több
Kevés felhő 4800 lábon

METAR: EGHQ 232050Z 31007KT 9999 FEW048 11/09 Q1019

Idő: 06:30 (05:30 UTC)

Előrejelzés

A jelentés 12 órával és 35 perccel ezelõtt készült, 16:55 UTC
Az előrejelzés 23-én 18 óra UTC és 23-én 21 óra UTC között érvényes
Észak-északnyugati szél 8 kt
Látótávolság 10 km, vagy több
Szórványos felhőzet 3500 lábon

TAF: EGHQ 231655Z 2318/2321 34008KT 9999 SCT035

Meteorológiai megfigyelések és előrejelzések több, mint 4000 repülőtéren (METAR és TAF jelentéseket).

A térképen piros és sárga pontok jelzik az elérhető meteorológiai állomásokat.

Mozgassa az egeret a pont fölött, hogy megjelenjen az állomás neve.

Azután kattintson az időjárási megfigyelések és előrejelzések megtekintéséhez.

A térkép megváltoztatása: kattintson a fekete keresztel jelölt zöld gombra ráközelítéshez, a vonallal jelölt zöld gombra távolításhoz, vagy a zöld nyilakra a szomszédos térképek eléréséhez.


METAR-TAF: